sensor_id;sensor_type;location;lat;lon;timestamp;pressure;altitude;pressure_sealevel;temperature;humidity
12676;BME280;63820;65.654;21.944;2023-01-28T00:00:55;100239.03;;;1.23;100.00
12676;BME280;63820;65.654;21.944;2023-01-28T00:03:39;100232.09;;;1.34;100.00
12676;BME280;63820;65.654;21.944;2023-01-28T00:06:24;100224.34;;;1.42;100.00
12676;BME280;63820;65.654;21.944;2023-01-28T00:09:08;100212.25;;;1.54;100.00
12676;BME280;63820;65.654;21.944;2023-01-28T00:11:53;100205.34;;;1.59;100.00
12676;BME280;63820;65.654;21.944;2023-01-28T00:14:37;100201.03;;;1.63;100.00
12676;BME280;63820;65.654;21.944;2023-01-28T00:17:21;100192.41;;;1.70;100.00
12676;BME280;63820;65.654;21.944;2023-01-28T00:20:05;100184.66;;;1.76;100.00
12676;BME280;63820;65.654;21.944;2023-01-28T00:22:50;100188.03;;;1.78;100.00
12676;BME280;63820;65.654;21.944;2023-01-28T00:25:34;100187.09;;;1.87;100.00
12676;BME280;63820;65.654;21.944;2023-01-28T00:28:17;100187.03;;;1.90;100.00
12676;BME280;63820;65.654;21.944;2023-01-28T00:31:10;100177.59;;;1.93;100.00
12676;BME280;63820;65.654;21.944;2023-01-28T00:33:56;100173.34;;;1.92;100.00
12676;BME280;63820;65.654;21.944;2023-01-28T00:36:40;100171.56;;;1.96;100.00
12676;BME280;63820;65.654;21.944;2023-01-28T00:39:25;100173.31;;;1.94;100.00
12676;BME280;63820;65.654;21.944;2023-01-28T00:42:10;100164.81;;;1.90;100.00
12676;BME280;63820;65.654;21.944;2023-01-28T00:44:54;100160.50;;;1.92;100.00
12676;BME280;63820;65.654;21.944;2023-01-28T00:47:38;100160.50;;;1.92;100.00
12676;BME280;63820;65.654;21.944;2023-01-28T00:50:22;100154.44;;;1.98;100.00
12676;BME280;63820;65.654;21.944;2023-01-28T00:53:06;100139.06;;;1.96;100.00
12676;BME280;63820;65.654;21.944;2023-01-28T00:55:50;100135.72;;;1.93;100.00
12676;BME280;63820;65.654;21.944;2023-01-28T00:58:35;100136.50;;;1.96;100.00
12676;BME280;63820;65.654;21.944;2023-01-28T01:01:23;100126.31;;;1.92;100.00
12676;BME280;63820;65.654;21.944;2023-01-28T01:04:07;100123.63;;;2.01;100.00
12676;BME280;63820;65.654;21.944;2023-01-28T01:06:51;100109.00;;;2.08;100.00
12676;BME280;63820;65.654;21.944;2023-01-28T01:09:36;100110.53;;;2.18;100.00
12676;BME280;63820;65.654;21.944;2023-01-28T01:12:20;100095.97;;;2.18;100.00
12676;BME280;63820;65.654;21.944;2023-01-28T01:15:05;100088.25;;;2.20;100.00
12676;BME280;63820;65.654;21.944;2023-01-28T01:17:53;100099.16;;;2.33;100.00
12676;BME280;63820;65.654;21.944;2023-01-28T01:20:37;100095.75;;;2.32;100.00
12676;BME280;63820;65.654;21.944;2023-01-28T01:23:25;100098.31;;;2.32;100.00
12676;BME280;63820;65.654;21.944;2023-01-28T01:26:10;100093.09;;;2.38;100.00
12676;BME280;63820;65.654;21.944;2023-01-28T01:28:54;100084.53;;;2.39;100.00
12676;BME280;63820;65.654;21.944;2023-01-28T01:31:39;100083.69;;;2.37;100.00
12676;BME280;63820;65.654;21.944;2023-01-28T01:34:23;100094.78;;;2.39;100.00
12676;BME280;63820;65.654;21.944;2023-01-28T01:37:08;100081.94;;;2.41;100.00
12676;BME280;63820;65.654;21.944;2023-01-28T01:39:53;100082.81;;;2.38;100.00
12676;BME280;63820;65.654;21.944;2023-01-28T01:42:37;100069.03;;;2.45;100.00
12676;BME280;63820;65.654;21.944;2023-01-28T01:45:22;100068.16;;;2.45;100.00
12676;BME280;63820;65.654;21.944;2023-01-28T01:48:14;100052.78;;;2.43;100.00
12676;BME280;63820;65.654;21.944;2023-01-28T01:51:08;100056.16;;;2.47;100.00
12676;BME280;63820;65.654;21.944;2023-01-28T01:53:55;100053.47;;;2.54;100.00
12676;BME280;63820;65.654;21.944;2023-01-28T01:56:42;100049.16;;;2.56;100.00
12676;BME280;63820;65.654;21.944;2023-01-28T01:59:29;100046.56;;;2.56;100.00
12676;BME280;63820;65.654;21.944;2023-01-28T02:02:16;100036.03;;;2.72;100.00
12676;BME280;63820;65.654;21.944;2023-01-28T02:05:01;100034.34;;;2.71;100.00
12676;BME280;63820;65.654;21.944;2023-01-28T02:07:47;100027.28;;;2.82;100.00
12676;BME280;63820;65.654;21.944;2023-01-28T02:10:33;100030.78;;;2.78;100.00
12676;BME280;63820;65.654;21.944;2023-01-28T02:13:18;100015.31;;;2.81;100.00
12676;BME280;63820;65.654;21.944;2023-01-28T02:16:05;100016.78;;;2.94;100.00
12676;BME280;63820;65.654;21.944;2023-01-28T02:18:50;100007.47;;;2.88;100.00
12676;BME280;63820;65.654;21.944;2023-01-28T02:22:03;100001.38;;;2.92;100.00
12676;BME280;63820;65.654;21.944;2023-01-28T02:25:21;99997.09;;;2.93;100.00
12676;BME280;63820;65.654;21.944;2023-01-28T02:31:01;99985.94;;;2.94;100.00
12676;BME280;63820;65.654;21.944;2023-01-28T02:34:07;99972.16;;;2.98;100.00
12676;BME280;63820;65.654;21.944;2023-01-28T02:37:54;99975.59;;;2.97;100.00
12676;BME280;63820;65.654;21.944;2023-01-28T02:40:17;99963.56;;;2.99;100.00
12676;BME280;63820;65.654;21.944;2023-01-28T02:43:03;99950.78;;;2.96;100.00
12676;BME280;63820;65.654;21.944;2023-01-28T02:45:47;99956.00;;;2.93;100.00
12676;BME280;63820;65.654;21.944;2023-01-28T02:48:50;99955.91;;;2.98;100.00
12676;BME280;63820;65.654;21.944;2023-01-28T02:57:28;99945.22;;;3.14;100.00
12676;BME280;63820;65.654;21.944;2023-01-28T03:03:41;99933.44;;;3.07;100.00
12676;BME280;63820;65.654;21.944;2023-01-28T03:06:32;99927.53;;;3.02;100.00
12676;BME280;63820;65.654;21.944;2023-01-28T03:09:20;99925.97;;;2.95;100.00
12676;BME280;63820;65.654;21.944;2023-01-28T03:12:09;99928.38;;;3.03;100.00
12676;BME280;63820;65.654;21.944;2023-01-28T03:15:17;99925.78;;;3.04;100.00
12676;BME280;63820;65.654;21.944;2023-01-28T03:18:51;99920.72;;;3.01;100.00
12676;BME280;63820;65.654;21.944;2023-01-28T03:21:55;99913.88;;;3.00;100.00
12676;BME280;63820;65.654;21.944;2023-01-28T03:25:00;99905.22;;;3.04;100.00
12676;BME280;63820;65.654;21.944;2023-01-28T03:28:08;99896.75;;;3.01;100.00
12676;BME280;63820;65.654;21.944;2023-01-28T03:31:14;99900.22;;;2.98;100.00
12676;BME280;63820;65.654;21.944;2023-01-28T03:34:20;99885.78;;;2.92;100.00
12676;BME280;63820;65.654;21.944;2023-01-28T03:37:23;99885.66;;;2.99;100.00
12676;BME280;63820;65.654;21.944;2023-01-28T03:40:10;99878.03;;;2.94;100.00
12676;BME280;63820;65.654;21.944;2023-01-28T03:42:54;99872.84;;;2.97;100.00
12676;BME280;63820;65.654;21.944;2023-01-28T03:45:40;99879.59;;;3.01;100.00
12676;BME280;63820;65.654;21.944;2023-01-28T03:48:25;99869.41;;;2.97;100.00
12676;BME280;63820;65.654;21.944;2023-01-28T03:51:10;99867.06;;;2.87;100.00
12676;BME280;63820;65.654;21.944;2023-01-28T03:53:55;99848.91;;;2.95;100.00
12676;BME280;63820;65.654;21.944;2023-01-28T03:56:39;99855.09;;;2.86;100.00
12676;BME280;63820;65.654;21.944;2023-01-28T03:59:24;99856.88;;;2.83;100.00
12676;BME280;63820;65.654;21.944;2023-01-28T04:02:09;99854.38;;;2.80;100.00
12676;BME280;63820;65.654;21.944;2023-01-28T04:04:56;99848.34;;;2.82;100.00
12676;BME280;63820;65.654;21.944;2023-01-28T04:07:41;99841.66;;;2.74;100.00
12676;BME280;63820;65.654;21.944;2023-01-28T04:10:25;99837.41;;;2.73;100.00
12676;BME280;63820;65.654;21.944;2023-01-28T04:13:09;99826.28;;;2.72;100.00
12676;BME280;63820;65.654;21.944;2023-01-28T04:15:53;99822.72;;;2.79;100.00
12676;BME280;63820;65.654;21.944;2023-01-28T04:18:37;99822.84;;;2.73;100.00
12676;BME280;63820;65.654;21.944;2023-01-28T04:21:21;99808.28;;;2.74;100.00
12676;BME280;63820;65.654;21.944;2023-01-28T04:24:06;99801.47;;;2.73;100.00
12676;BME280;63820;65.654;21.944;2023-01-28T04:26:50;99802.38;;;2.70;100.00
12676;BME280;63820;65.654;21.944;2023-01-28T04:29:34;99802.47;;;2.66;100.00
12676;BME280;63820;65.654;21.944;2023-01-28T04:32:18;99791.28;;;2.68;100.00
12676;BME280;63820;65.654;21.944;2023-01-28T04:35:02;99784.44;;;2.69;100.00
12676;BME280;63820;65.654;21.944;2023-01-28T04:37:47;99775.88;;;2.68;100.00
12676;BME280;63820;65.654;21.944;2023-01-28T04:40:31;99764.84;;;2.65;100.00
12676;BME280;63820;65.654;21.944;2023-01-28T04:43:15;99762.25;;;2.65;100.00
12676;BME280;63820;65.654;21.944;2023-01-28T04:45:59;99757.06;;;2.68;100.00
12676;BME280;63820;65.654;21.944;2023-01-28T04:48:43;99748.47;;;2.69;100.00
12676;BME280;63820;65.654;21.944;2023-01-28T04:51:27;99743.28;;;2.72;100.00
12676;BME280;63820;65.654;21.944;2023-01-28T04:54:11;99745.91;;;2.69;100.00
12676;BME280;63820;65.654;21.944;2023-01-28T04:56:55;99743.34;;;2.69;100.00
12676;BME280;63820;65.654;21.944;2023-01-28T04:59:40;99747.59;;;2.70;100.00
12676;BME280;63820;65.654;21.944;2023-01-28T05:02:24;99740.84;;;2.66;100.00
12676;BME280;63820;65.654;21.944;2023-01-28T05:05:08;99742.47;;;2.70;100.00
12676;BME280;63820;65.654;21.944;2023-01-28T05:07:54;99738.13;;;2.72;100.00
12676;BME280;63820;65.654;21.944;2023-01-28T05:10:38;99731.97;;;2.79;100.00
12676;BME280;63820;65.654;21.944;2023-01-28T05:13:23;99719.06;;;2.82;100.00
12676;BME280;63820;65.654;21.944;2023-01-28T05:16:08;99717.41;;;2.79;100.00
12676;BME280;63820;65.654;21.944;2023-01-28T05:18:52;99716.50;;;2.82;100.00
12676;BME280;63820;65.654;21.944;2023-01-28T05:21:36;99701.28;;;2.74;100.00
12676;BME280;63820;65.654;21.944;2023-01-28T05:24:20;99696.97;;;2.75;100.00
12676;BME280;63820;65.654;21.944;2023-01-28T05:27:05;99689.50;;;2.66;100.00
12676;BME280;63820;65.654;21.944;2023-01-28T05:29:50;99680.97;;;2.63;100.00
12676;BME280;63820;65.654;21.944;2023-01-28T05:32:34;99676.94;;;2.53;100.00
12676;BME280;63820;65.654;21.944;2023-01-28T05:35:18;99682.06;;;2.53;100.00
12676;BME280;63820;65.654;21.944;2023-01-28T05:38:02;99678.84;;;2.45;100.00
12676;BME280;63820;65.654;21.944;2023-01-28T05:40:47;99664.44;;;2.40;100.00
12676;BME280;63820;65.654;21.944;2023-01-28T05:43:31;99670.25;;;2.46;100.00
12676;BME280;63820;65.654;21.944;2023-01-28T05:46:15;99661.75;;;2.44;100.00
12676;BME280;63820;65.654;21.944;2023-01-28T05:48:59;99653.31;;;2.39;100.00
12676;BME280;63820;65.654;21.944;2023-01-28T05:51:43;99642.06;;;2.45;100.00
12676;BME280;63820;65.654;21.944;2023-01-28T05:54:29;99635.34;;;2.39;100.00
12676;BME280;63820;65.654;21.944;2023-01-28T05:57:13;99638.63;;;2.46;100.00
12676;BME280;63820;65.654;21.944;2023-01-28T05:59:57;99639.53;;;2.43;100.00
12676;BME280;63820;65.654;21.944;2023-01-28T06:02:42;99625.81;;;2.44;100.00
12676;BME280;63820;65.654;21.944;2023-01-28T06:05:26;99628.34;;;2.46;100.00
12676;BME280;63820;65.654;21.944;2023-01-28T06:08:10;99623.28;;;2.43;100.00
12676;BME280;63820;65.654;21.944;2023-01-28T06:10:54;99625.91;;;2.41;100.00
12676;BME280;63820;65.654;21.944;2023-01-28T06:13:38;99624.13;;;2.43;100.00
12676;BME280;63820;65.654;21.944;2023-01-28T06:16:24;99617.16;;;2.48;100.00
12676;BME280;63820;65.654;21.944;2023-01-28T06:19:08;99594.31;;;2.38;100.00
12676;BME280;63820;65.654;21.944;2023-01-28T06:21:53;99607.06;;;2.42;100.00
12676;BME280;63820;65.654;21.944;2023-01-28T06:24:37;99609.72;;;2.38;100.00
12676;BME280;63820;65.654;21.944;2023-01-28T06:27:20;99609.69;;;2.39;100.00
12676;BME280;63820;65.654;21.944;2023-01-28T06:30:05;99608.78;;;2.42;100.00
12676;BME280;63820;65.654;21.944;2023-01-28T06:32:53;99612.25;;;2.39;100.00
12676;BME280;63820;65.654;21.944;2023-01-28T06:35:37;99609.72;;;2.38;100.00
12676;BME280;63820;65.654;21.944;2023-01-28T06:38:21;99619.97;;;2.39;100.00
12676;BME280;63820;65.654;21.944;2023-01-28T06:41:06;99616.63;;;2.36;100.00
12676;BME280;63820;65.654;21.944;2023-01-28T06:43:50;99614.19;;;2.29;100.00
12676;BME280;63820;65.654;21.944;2023-01-28T06:46:34;99624.34;;;2.34;100.00
12676;BME280;63820;65.654;21.944;2023-01-28T06:49:18;99618.34;;;2.35;100.00
12676;BME280;63820;65.654;21.944;2023-01-28T06:52:03;99621.72;;;2.37;100.00
12676;BME280;63820;65.654;21.944;2023-01-28T06:54:47;99615.66;;;2.40;100.00
12676;BME280;63820;65.654;21.944;2023-01-28T06:57:32;99612.41;;;2.33;100.00
12676;BME280;63820;65.654;21.944;2023-01-28T07:00:16;99606.31;;;2.37;100.00
12676;BME280;63820;65.654;21.944;2023-01-28T07:03:01;99603.00;;;2.32;100.00
12676;BME280;63820;65.654;21.944;2023-01-28T07:05:46;99588.28;;;2.40;100.00
12676;BME280;63820;65.654;21.944;2023-01-28T07:08:30;99586.75;;;2.33;100.00
12676;BME280;63820;65.654;21.944;2023-01-28T07:11:15;99580.94;;;2.25;100.00
12676;BME280;63820;65.654;21.944;2023-01-28T07:13:59;99585.06;;;2.32;100.00
12676;BME280;63820;65.654;21.944;2023-01-28T07:16:43;99584.31;;;2.27;100.00
12676;BME280;63820;65.654;21.944;2023-01-28T07:19:28;99576.47;;;2.33;100.00
12676;BME280;63820;65.654;21.944;2023-01-28T07:22:12;99574.78;;;2.32;100.00
12676;BME280;63820;65.654;21.944;2023-01-28T07:24:56;99579.00;;;2.35;100.00
12676;BME280;63820;65.654;21.944;2023-01-28T07:27:49;99574.72;;;2.35;100.00
12676;BME280;63820;65.654;21.944;2023-01-28T07:30:34;99576.56;;;2.30;100.00
12676;BME280;63820;65.654;21.944;2023-01-28T07:33:18;99585.13;;;2.29;100.00
12676;BME280;63820;65.654;21.944;2023-01-28T07:36:02;99574.94;;;2.26;100.00
12676;BME280;63820;65.654;21.944;2023-01-28T07:38:46;99585.34;;;2.20;100.00
12676;BME280;63820;65.654;21.944;2023-01-28T07:41:31;99589.75;;;2.15;100.00
12676;BME280;63820;65.654;21.944;2023-01-28T07:44:15;99585.56;;;2.11;100.00
12676;BME280;63820;65.654;21.944;2023-01-28T07:46:59;99582.16;;;2.10;100.00
12676;BME280;63820;65.654;21.944;2023-01-28T07:49:43;99583.88;;;2.10;100.00
12676;BME280;63820;65.654;21.944;2023-01-28T07:52:26;99586.66;;;2.02;100.00
12676;BME280;63820;65.654;21.944;2023-01-28T07:55:11;99594.38;;;2.01;100.00
12676;BME280;63820;65.654;21.944;2023-01-28T07:57:58;99599.72;;;1.91;100.00
12676;BME280;63820;65.654;21.944;2023-01-28T08:00:49;99599.78;;;1.88;100.00
12676;BME280;63820;65.654;21.944;2023-01-28T08:03:33;99588.63;;;1.91;100.00
12676;BME280;63820;65.654;21.944;2023-01-28T08:06:19;99587.78;;;1.90;100.00
12676;BME280;63820;65.654;21.944;2023-01-28T08:09:04;99593.72;;;1.92;100.00
12676;BME280;63820;65.654;21.944;2023-01-28T08:11:48;99591.22;;;1.89;100.00
12676;BME280;63820;65.654;21.944;2023-01-28T08:14:33;99585.09;;;1.95;100.00
12676;BME280;63820;65.654;21.944;2023-01-28T08:17:17;99583.88;;;2.10;100.00
12676;BME280;63820;65.654;21.944;2023-01-28T08:20:01;99578.00;;;2.06;100.00
12676;BME280;63820;65.654;21.944;2023-01-28T08:22:45;99572.94;;;2.03;100.00
12676;BME280;63820;65.654;21.944;2023-01-28T08:25:29;99587.50;;;2.03;100.00
12676;BME280;63820;65.654;21.944;2023-01-28T08:28:14;99584.03;;;2.04;100.00
12676;BME280;63820;65.654;21.944;2023-01-28T08:30:59;99586.72;;;1.99;100.00
12676;BME280;63820;65.654;21.944;2023-01-28T08:33:44;99592.09;;;1.88;100.00
12676;BME280;63820;65.654;21.944;2023-01-28T08:36:28;99593.91;;;1.83;100.00
12676;BME280;63820;65.654;21.944;2023-01-28T08:39:12;99610.03;;;1.88;100.00
12676;BME280;63820;65.654;21.944;2023-01-28T08:41:56;99605.63;;;1.95;100.00
12676;BME280;63820;65.654;21.944;2023-01-28T08:44:40;99610.69;;;1.98;100.00
12676;BME280;63820;65.654;21.944;2023-01-28T08:47:24;99614.66;;;2.10;100.00
12676;BME280;63820;65.654;21.944;2023-01-28T08:50:08;99614.75;;;2.07;100.00
12676;BME280;63820;65.654;21.944;2023-01-28T08:52:58;99609.53;;;2.10;100.00
12676;BME280;63820;65.654;21.944;2023-01-28T08:55:42;99599.44;;;2.04;100.00
12676;BME280;63820;65.654;21.944;2023-01-28T08:58:26;99605.13;;;2.15;100.00
12676;BME280;63820;65.654;21.944;2023-01-28T09:01:10;99600.81;;;2.17;100.00
12676;BME280;63820;65.654;21.944;2023-01-28T09:03:54;99605.97;;;2.15;100.00
12676;BME280;63820;65.654;21.944;2023-01-28T09:06:39;99609.34;;;2.17;100.00
12676;BME280;63820;65.654;21.944;2023-01-28T09:09:23;99600.88;;;2.14;100.00
12676;BME280;63820;65.654;21.944;2023-01-28T09:12:07;99598.19;;;2.20;100.00
12676;BME280;63820;65.654;21.944;2023-01-28T09:14:53;99585.13;;;2.29;100.00
12676;BME280;63820;65.654;21.944;2023-01-28T09:17:38;99579.66;;;2.43;100.00
12676;BME280;63820;65.654;21.944;2023-01-28T09:20:22;99585.28;;;2.57;100.00
12676;BME280;63820;65.654;21.944;2023-01-28T09:23:07;99574.41;;;2.81;100.00
12676;BME280;63820;65.654;21.944;2023-01-28T09:25:59;99573.41;;;3.16;100.00
12676;BME280;63820;65.654;21.944;2023-01-28T09:28:43;99567.59;;;3.41;100.00
12676;BME280;63820;65.654;21.944;2023-01-28T09:31:27;99578.34;;;4.62;100.00
12676;BME280;63820;65.654;21.944;2023-01-28T09:34:11;99570.25;;;6.33;92.46
12676;BME280;63820;65.654;21.944;2023-01-28T09:36:55;99572.72;;;7.36;80.52
12676;BME280;63820;65.654;21.944;2023-01-28T09:39:40;99571.66;;;8.50;68.04
12676;BME280;63820;65.654;21.944;2023-01-28T09:45:34;99584.03;;;10.84;57.00
12676;BME280;63820;65.654;21.944;2023-01-28T09:48:25;99574.75;;;10.80;55.08
12676;BME280;63820;65.654;21.944;2023-01-28T09:51:44;99574.75;;;11.79;52.88
12676;BME280;63820;65.654;21.944;2023-01-28T09:55:06;99586.31;;;12.17;50.38
12676;BME280;63820;65.654;21.944;2023-01-28T09:57:52;99573.97;;;12.46;48.50
12676;BME280;63820;65.654;21.944;2023-01-28T10:10:26;99542.47;;;10.08;51.85
12676;BME280;63820;65.654;21.944;2023-01-28T10:16:16;99543.44;;;10.37;51.78
12676;BME280;63820;65.654;21.944;2023-01-28T10:19:06;99528.06;;;10.63;49.46
12676;BME280;63820;65.654;21.944;2023-01-28T10:21:59;99523.19;;;9.02;53.11
12676;BME280;63820;65.654;21.944;2023-01-28T10:24:48;99528.59;;;9.78;52.91
12676;BME280;63820;65.654;21.944;2023-01-28T10:27:35;99530.50;;;10.22;51.98
12676;BME280;63820;65.654;21.944;2023-01-28T10:30:23;99527.41;;;9.83;52.26
12676;BME280;63820;65.654;21.944;2023-01-28T10:36:02;99535.91;;;10.33;50.39
12676;BME280;63820;65.654;21.944;2023-01-28T10:38:46;99525.78;;;10.87;49.02
12676;BME280;63820;65.654;21.944;2023-01-28T10:41:31;99526.53;;;10.30;50.65
12676;BME280;63820;65.654;21.944;2023-01-28T10:44:31;99504.06;;;9.21;51.64
12676;BME280;63820;65.654;21.944;2023-01-28T10:47:32;99516.78;;;10.34;50.36
12676;BME280;63820;65.654;21.944;2023-01-28T10:50:24;99503.78;;;10.34;48.78
12676;BME280;63820;65.654;21.944;2023-01-28T10:53:09;99500.59;;;9.67;50.32
12676;BME280;63820;65.654;21.944;2023-01-28T10:55:55;99496.03;;;10.62;48.84
12676;BME280;63820;65.654;21.944;2023-01-28T10:58:57;99485.50;;;8.45;51.87
12676;BME280;63820;65.654;21.944;2023-01-28T11:01:44;99486.47;;;9.26;50.67
12676;BME280;63820;65.654;21.944;2023-01-28T11:04:34;99503.44;;;8.49;51.98
12676;BME280;63820;65.654;21.944;2023-01-28T11:07:20;99480.78;;;8.36;53.05
12676;BME280;63820;65.654;21.944;2023-01-28T11:10:31;99481.63;;;8.36;52.36
12676;BME280;63820;65.654;21.944;2023-01-28T11:13:28;99469.72;;;9.47;51.19
12676;BME280;63820;65.654;21.944;2023-01-28T11:16:16;99466.84;;;7.32;55.29
12676;BME280;63820;65.654;21.944;2023-01-28T11:19:03;99469.78;;;7.79;55.13
12676;BME280;63820;65.654;21.944;2023-01-28T11:21:53;99460.91;;;8.36;54.19
12676;BME280;63820;65.654;21.944;2023-01-28T11:24:38;99451.00;;;7.20;55.50
12676;BME280;63820;65.654;21.944;2023-01-28T11:27:27;99462.28;;;7.55;55.83
12676;BME280;63820;65.654;21.944;2023-01-28T11:30:33;99461.19;;;7.96;54.71
12676;BME280;63820;65.654;21.944;2023-01-28T11:33:21;99476.59;;;8.50;53.04
12676;BME280;63820;65.654;21.944;2023-01-28T11:36:13;99469.41;;;7.50;54.54
12676;BME280;63820;65.654;21.944;2023-01-28T11:39:00;99456.72;;;6.30;59.22
12676;BME280;63820;65.654;21.944;2023-01-28T11:41:46;99461.94;;;6.29;58.14
12676;BME280;63820;65.654;21.944;2023-01-28T11:44:30;99459.56;;;6.83;56.60
12676;BME280;63820;65.654;21.944;2023-01-28T11:47:37;99475.88;;;7.78;55.10
12676;BME280;63820;65.654;21.944;2023-01-28T11:50:46;99466.78;;;9.06;51.47
12676;BME280;63820;65.654;21.944;2023-01-28T11:53:36;99468.63;;;9.20;52.09
12676;BME280;63820;65.654;21.944;2023-01-28T12:08:01;99465.63;;;8.28;51.04
12676;BME280;63820;65.654;21.944;2023-01-28T12:29:20;99452.56;;;3.19;77.85
12676;BME280;63820;65.654;21.944;2023-01-28T12:35:58;99449.44;;;2.49;90.32
12676;BME280;63820;65.654;21.944;2023-01-28T12:39:24;99437.34;;;2.22;94.58
12676;BME280;63820;65.654;21.944;2023-01-28T12:48:10;99434.28;;;1.75;100.00
12676;BME280;63820;65.654;21.944;2023-01-28T12:51:06;99440.50;;;1.65;100.00
12676;BME280;63820;65.654;21.944;2023-01-28T12:54:09;99431.94;;;1.66;100.00
12676;BME280;63820;65.654;21.944;2023-01-28T12:56:55;99430.78;;;1.42;100.00
12676;BME280;63820;65.654;21.944;2023-01-28T12:59:48;99430.03;;;1.39;100.00
12676;BME280;63820;65.654;21.944;2023-01-28T13:02:46;99426.16;;;1.21;100.00
12676;BME280;63820;65.654;21.944;2023-01-28T13:05:37;99430.06;;;1.37;100.00
12676;BME280;63820;65.654;21.944;2023-01-28T13:08:25;99423.44;;;1.27;100.00
12676;BME280;63820;65.654;21.944;2023-01-28T13:11:15;99424.38;;;1.24;100.00
12676;BME280;63820;65.654;21.944;2023-01-28T13:14:02;99411.75;;;1.15;100.00
12676;BME280;63820;65.654;21.944;2023-01-28T13:16:47;99415.31;;;1.10;100.00
12676;BME280;63820;65.654;21.944;2023-01-28T13:19:40;99410.19;;;1.10;100.00
12676;BME280;63820;65.654;21.944;2023-01-28T13:22:31;99409.81;;;0.89;100.00
12676;BME280;63820;65.654;21.944;2023-01-28T13:28:04;99407.53;;;0.76;100.00
12676;BME280;63820;65.654;21.944;2023-01-28T13:30:49;99400.84;;;0.69;100.00
12676;BME280;63820;65.654;21.944;2023-01-28T13:33:38;99390.75;;;0.62;100.00
12676;BME280;63820;65.654;21.944;2023-01-28T13:42:09;99381.81;;;0.40;100.00
12676;BME280;63820;65.654;21.944;2023-01-28T13:44:54;99381.03;;;0.37;100.00
12676;BME280;63820;65.654;21.944;2023-01-28T13:47:43;99385.28;;;0.38;100.00
12676;BME280;63820;65.654;21.944;2023-01-28T13:50:39;99376.13;;;0.26;100.00
12676;BME280;63820;65.654;21.944;2023-01-28T13:53:43;99373.50;;;0.29;100.00
12676;BME280;63820;65.654;21.944;2023-01-28T13:56:40;99374.13;;;0.40;100.00
12676;BME280;63820;65.654;21.944;2023-01-28T13:59:48;99374.94;;;0.42;100.00
12676;BME280;63820;65.654;21.944;2023-01-28T14:18:35;99373.41;;;-0.10;100.00
12676;BME280;63820;65.654;21.944;2023-01-28T14:21:21;99379.56;;;-0.20;100.00
12676;BME280;63820;65.654;21.944;2023-01-28T14:24:13;99371.66;;;-0.08;100.00
12676;BME280;63820;65.654;21.944;2023-01-28T14:27:12;99377.00;;;-0.20;100.00
12676;BME280;63820;65.654;21.944;2023-01-28T14:30:28;99367.00;;;-0.32;100.00
12676;BME280;63820;65.654;21.944;2023-01-28T14:33:17;99364.63;;;-0.43;100.00
12676;BME280;63820;65.654;21.944;2023-01-28T14:36:02;99367.34;;;-0.53;100.00
12676;BME280;63820;65.654;21.944;2023-01-28T14:38:46;99370.78;;;-0.54;100.00
12676;BME280;63820;65.654;21.944;2023-01-28T14:41:31;99362.97;;;-0.47;100.00
12676;BME280;63820;65.654;21.944;2023-01-28T14:44:34;99357.22;;;-0.58;100.00
12676;BME280;63820;65.654;21.944;2023-01-28T14:47:33;99360.75;;;-0.67;100.00
12676;BME280;63820;65.654;21.944;2023-01-28T14:56:57;99356.81;;;-0.35;100.00
12676;BME280;63820;65.654;21.944;2023-01-28T14:59:54;99347.44;;;-0.35;100.00
12676;BME280;63820;65.654;21.944;2023-01-28T15:02:42;99350.84;;;-0.34;100.00
12676;BME280;63820;65.654;21.944;2023-01-28T15:05:29;99335.50;;;-0.32;100.00
12676;BME280;63820;65.654;21.944;2023-01-28T15:08:21;99335.41;;;-0.28;100.00
12676;BME280;63820;65.654;21.944;2023-01-28T15:11:09;99332.38;;;-0.02;100.00
12676;BME280;63820;65.654;21.944;2023-01-28T15:13:57;99326.47;;;-0.06;100.00
12676;BME280;63820;65.654;21.944;2023-01-28T15:16:46;99329.94;;;-0.08;100.00
12676;BME280;63820;65.654;21.944;2023-01-28T15:19:33;99327.41;;;-0.10;100.00
12676;BME280;63820;65.654;21.944;2023-01-28T15:22:18;99329.97;;;-0.10;100.00
12676;BME280;63820;65.654;21.944;2023-01-28T15:25:04;99320.34;;;0.02;100.00
12676;BME280;63820;65.654;21.944;2023-01-28T15:27:49;99322.72;;;0.11;100.00
12676;BME280;63820;65.654;21.944;2023-01-28T15:30:35;99316.91;;;0.03;100.00
12676;BME280;63820;65.654;21.944;2023-01-28T15:33:21;99317.84;;;0.00;100.00
12676;BME280;63820;65.654;21.944;2023-01-28T15:36:05;99302.66;;;-0.08;100.00
12676;BME280;63820;65.654;21.944;2023-01-28T15:38:50;99299.16;;;-0.02;100.00
12676;BME280;63820;65.654;21.944;2023-01-28T15:41:38;99291.34;;;0.03;100.00
12676;BME280;63820;65.654;21.944;2023-01-28T15:44:37;99292.97;;;0.07;100.00
12676;BME280;63820;65.654;21.944;2023-01-28T15:47:29;99284.44;;;0.08;100.00
12676;BME280;63820;65.654;21.944;2023-01-28T15:50:21;99283.53;;;0.10;100.00
12676;BME280;63820;65.654;21.944;2023-01-28T15:53:07;99280.94;;;0.12;100.00
12676;BME280;63820;65.654;21.944;2023-01-28T15:56:03;99267.88;;;0.25;100.00
12676;BME280;63820;65.654;21.944;2023-01-28T15:58:47;99265.03;;;0.39;100.00
12676;BME280;63820;65.654;21.944;2023-01-28T16:01:31;99253.91;;;0.40;100.00
12676;BME280;63820;65.654;21.944;2023-01-28T16:04:25;99253.81;;;0.45;100.00
12676;BME280;63820;65.654;21.944;2023-01-28T16:07:09;99256.50;;;0.39;100.00
12676;BME280;63820;65.654;21.944;2023-01-28T16:09:55;99265.22;;;0.30;100.00
12676;BME280;63820;65.654;21.944;2023-01-28T16:12:40;99269.50;;;0.29;100.00
12676;BME280;63820;65.654;21.944;2023-01-28T16:15:24;99262.97;;;0.15;100.00
12676;BME280;63820;65.654;21.944;2023-01-28T16:21:20;99270.78;;;0.09;100.00